Time;durP1;ratioP1;P1;durP2;ratioP2;P2;SDS_P1;SDS_P2;PMS_P1;PMS_P2;Temp;Humidity;BMP_temperature;BMP_pressure;BME280_temperature;BME280_humidity;BME280_pressure;Samples;Min_cycle;Max_cycle;Signal;HPM_P1;HPM_P2
2022/10/01 02:23:34;;;;;;;9.65;3.47;;;16.90;99.90;;;;;;5602673;24;19932;-80
2022/10/01 02:29:56;;;;;;;9.52;3.38;;;16.90;99.90;;;;;;4741185;30;20056;-81
2022/10/01 02:33:17;;;;;;;;;;;;;;;;;;;;;
2022/10/01 02:36:39;;;;;;;;;;;;;;;;;;;;;
2022/10/01 02:43:45;;;;;;;;;;;;;;;;;;;;;
2022/10/01 02:50:48;;;;;;;20.35;3.88;;;16.80;99.90;;;;;;4716043;30;20048;-80
2022/10/01 02:54:18;;;;;;;;;;;;;;;;;;;;;
2022/10/01 03:00:36;;;;;;;7.57;3.00;;;16.80;99.90;;;;;;4731381;30;20617;-81
2022/10/01 03:03:22;;;;;;;7.47;2.58;;;16.80;99.90;;;;;;4718394;30;20041;-81
2022/10/01 03:06:05;;;;;;;11.55;3.33;;;16.80;99.90;;;;;;4718401;30;20474;-82
2022/10/01 03:54:25;;;;;;;16.20;4.57;;;16.50;99.90;;;;;;5380472;24;20061;-81
2022/10/01 03:56:51;;;;;;;10.50;5.70;;;16.50;99.90;;;;;;4817125;29;20038;-82
2022/10/01 03:59:49;;;;;;;15.30;5.88;;;16.40;99.90;;;;;;4801111;29;20406;-82
2022/10/01 04:40:52;;;;;;;12.68;5.20;;;16.30;99.90;;;;;;5302124;24;20061;-81
2022/10/01 04:44:09;;;;;;;14.88;4.80;;;16.30;99.90;;;;;;4801772;29;20044;-81
2022/10/01 04:50:42;;;;;;;10.37;4.07;;;16.40;99.90;;;;;;4825768;29;20057;-80
2022/10/01 04:54:04;;;;;;;15.90;4.65;;;16.40;99.90;;;;;;4775857;30;20109;-80
2022/10/01 06:11:39;;;;;;;23.52;8.95;;;16.90;99.90;;;;;;4825743;29;20030;-83
2022/10/01 06:14:20;;;;;;;19.00;8.07;;;16.90;99.90;;;;;;4825980;29;20038;-83
2022/10/01 09:19:15;;;;;;;14.18;7.65;;;20.80;99.90;;;;;;4846941;29;20058;-82
2022/10/01 09:53:06;;;;;;;10.40;6.00;;;;;;;;;;4463497;27;20116;-81
2022/10/01 09:55:36;;;;;;;11.95;6.22;;;;;;;;;;4806976;29;20031;-81
2022/10/01 09:58:27;;;;;;;7.63;5.60;;;;;;;;;;4808350;29;20554;-80
2022/10/01 10:00:57;;;;;;;12.15;5.97;;;;;;;;;;4807343;29;20424;-81
2022/10/01 10:03:24;;;;;;;13.55;5.82;;;;;;;;;;4807041;29;20107;-81
2022/10/01 10:05:51;;;;;;;9.48;6.55;;;;;;;;;;4807880;29;20027;-81
2022/10/01 10:08:20;;;;;;;11.00;5.93;;;;;;;;;;4806775;29;20080;-81
2022/10/01 10:10:51;;;;;;;11.10;6.35;;;;;;;;;;4806668;29;20026;-81
2022/10/01 10:13:33;;;;;;;11.57;7.43;;;;;;;;;;4807135;29;20027;-82
2022/10/01 10:16:00;;;;;;;11.82;7.15;;;;;;;;;;4806664;29;20036;-82
2022/10/01 10:18:34;;;;;;;10.40;6.57;;;;;;;;;;4806429;29;20023;-82
2022/10/01 10:21:02;;;;;;;12.27;7.35;;;;;;;;;;4807931;29;20026;-82
2022/10/01 10:23:28;;;;;;;11.75;6.13;;;;;;;;;;4807472;29;20031;-82
2022/10/01 10:26:02;;;;;;;7.97;5.10;;;;;;;;;;4807664;29;20502;-81
2022/10/01 10:28:48;;;;;;;8.18;5.85;;;;;;;;;;4806619;29;20363;-82
2022/10/01 10:31:16;;;;;;;13.80;6.10;;;;;;;;;;4808028;29;20456;-84
2022/10/01 10:34:09;;;;;;;7.65;6.45;;;;;;;;;;4807137;29;20023;-82
2022/10/01 10:36:36;;;;;;;9.13;6.13;;;;;;;;;;4788908;29;20093;-83
2022/10/01 10:39:04;;;;;;;9.77;5.82;;;;;;;;;;4806092;29;20041;-82
2022/10/01 10:41:31;;;;;;;8.52;5.82;;;;;;;;;;4806018;29;20479;-83
2022/10/01 10:43:59;;;;;;;12.80;5.65;;;;;;;;;;4806162;29;20030;-80
2022/10/01 10:46:36;;;;;;;7.90;5.70;;;;;;;;;;4807240;29;20366;-81
2022/10/01 10:49:15;;;;;;;8.70;5.20;;;;;;;;;;4807428;29;20031;-81
2022/10/01 10:51:47;;;;;;;8.43;5.28;;;;;;;;;;4805886;29;20047;-82
2022/10/01 10:54:21;;;;;;;9.23;5.85;;;;;;;;;;4805960;29;20029;-81
2022/10/01 10:56:51;;;;;;;7.47;5.20;;;;;;;;;;4807222;29;20471;-82
2022/10/01 10:59:17;;;;;;;9.65;5.10;;;;;;;;;;4806914;29;20538;-83
2022/10/01 11:01:46;;;;;;;9.48;5.35;;;;;;;;;;4805799;29;20030;-83
2022/10/01 11:04:27;;;;;;;7.20;4.90;;;;;;;;;;4807293;29;20019;-82
2022/10/01 11:06:55;;;;;;;8.18;5.18;;;;;;;;;;4806659;29;20098;-83
2022/10/01 11:09:23;;;;;;;5.82;4.90;;;;;;;;;;4806033;29;20066;-81
2022/10/01 11:11:52;;;;;;;12.13;5.68;;;;;;;;;;4805818;29;20022;-81
2022/10/01 11:14:48;;;;;;;6.90;5.50;;;;;;;;;;4806853;29;20102;-80
2022/10/01 11:17:19;;;;;;;6.80;5.00;;;;;;;;;;4733203;30;20064;-82
2022/10/01 11:19:45;;;;;;;;;;;;;;;;;;4733918;30;20503;-83
2022/10/01 11:22:11;;;;;;;8.68;4.70;;;;;;;;;;4733502;30;19981;-83
2022/10/01 11:24:44;;;;;;;11.57;5.63;;;;;;;;;;4733354;30;20025;-75
2022/10/01 11:27:14;;;;;;;8.35;5.68;;;;;;;;;;4718644;30;20119;-83
2022/10/01 11:29:49;;;;;;;9.85;4.63;;;;;;;;;;4718598;30;20082;-83
2022/10/01 11:32:33;;;;;;;5.10;4.55;;;;;;;;;;4718883;30;20132;-79
2022/10/01 11:35:26;;;;;;;5.93;3.83;;;;;;;;;;4733433;30;20123;-83
2022/10/01 11:37:59;;;;;;;6.80;4.45;;;;;;;;;;4698216;30;20141;-80
2022/10/01 11:40:52;;;;;;;13.60;5.70;;;;;;;;;;4698356;30;20536;-84
2022/10/01 11:43:21;;;;;;;8.23;5.03;;;;;;;;;;4694171;30;20037;-84
2022/10/01 11:45:50;;;;;;;9.90;5.30;;;;;;;;;;4698326;30;20402;-85
2022/10/01 11:48:24;;;;;;;8.13;6.22;;;;;;;;;;4698262;30;20034;-87
2022/10/01 11:50:55;;;;;;;10.73;5.88;;;;;;;;;;4697792;30;20491;-86
2022/10/01 11:53:23;;;;;;;12.40;5.55;;;;;;;;;;4718983;30;20055;-85
2022/10/01 11:59:13;;;;;;;6.20;5.50;;;;;;;;;;4750992;30;20071;-83
2022/10/01 12:01:39;;;;;;;;;;;;;;;;;;4751206;30;20040;-84
2022/10/01 12:04:25;;;;;;;7.95;4.70;;;;;;;;;;4750391;30;19906;-84
2022/10/01 12:06:54;;;;;;;8.07;5.28;;;;;;;;;;4735664;30;20054;-86
2022/10/01 12:09:25;;;;;;;11.05;5.40;;;;;;;;;;4735896;30;20434;-85
2022/10/01 12:12:00;;;;;;;11.07;5.65;;;;;;;;;;4750497;30;20036;-83
2022/10/01 12:14:35;;;;;;;7.20;4.40;;;;;;;;;;4773516;29;20035;-84
2022/10/01 12:17:16;;;;;;;6.50;4.95;;;;;;;;;;4809133;29;20371;-85
2022/10/01 12:19:45;;;;;;;8.63;4.73;;;;;;;;;;4808804;29;20038;-82
2022/10/01 12:22:19;;;;;;;7.75;4.82;;;;;;;;;;4808279;29;20031;-83
2022/10/01 12:24:46;;;;;;;10.48;4.97;;;;;;;;;;4808576;29;20018;-81
2022/10/01 12:27:32;;;;;;;5.50;4.80;;;;;;;;;;4808600;29;20023;-83
2022/10/01 12:30:04;;;;;;;8.65;5.25;;;;;;;;;;4809538;29;20054;-83
2022/10/01 12:32:33;;;;;;;9.43;5.90;;;;;;;;;;4809578;29;20033;-85
2022/10/01 12:35:01;;;;;;;8.10;5.63;;;;;;;;;;4808420;29;20113;-85
2022/10/01 12:37:46;;;;;;;12.25;6.07;;;;;;;;;;4808483;29;20171;-87
2022/10/01 12:40:21;;;;;;;6.60;4.72;;;;;;;;;;4808084;29;20042;-86
2022/10/01 12:42:53;;;;;;;6.53;5.07;;;;;;;;;;4808246;29;20079;-87
2022/10/01 12:45:31;;;;;;;6.10;5.28;;;;;;;;;;4808115;29;20014;-86
2022/10/01 12:47:58;;;;;;;9.15;4.75;;;;;;;;;;4808619;29;20045;-88
2022/10/01 12:50:24;;;;;;;9.57;4.80;;;;;;;;;;4793153;29;20052;-88
2022/10/01 12:52:57;;;;;;;12.18;5.00;;;;;;;;;;4809374;29;20233;-88
2022/10/01 12:55:39;;;;;;;6.20;4.68;;;;;;;;;;4793116;29;20050;-87
2022/10/01 12:58:18;;;;;;;7.32;5.03;;;;;;;;;;4808423;29;20117;-87
2022/10/01 13:00:50;;;;;;;10.13;5.20;;;;;;;;;;4809090;29;20034;-85
2022/10/01 13:03:22;;;;;;;6.75;5.15;;;;;;;;;;4805439;29;20072;-85
2022/10/01 13:06:01;;;;;;;9.63;4.93;;;;;;;;;;4808448;29;20033;-87
2022/10/01 13:08:32;;;;;;;8.23;5.55;;;;;;;;;;4808175;29;20543;-86
2022/10/01 13:10:59;;;;;;;12.13;4.90;;;;;;;;;;4808132;29;20025;-85
2022/10/01 13:13:31;;;;;;;9.35;5.10;;;;;;;;;;4807871;29;20034;-85
2022/10/01 13:16:16;;;;;;;6.65;4.55;;;;;;;;;;4792326;29;20340;-86
2022/10/01 13:18:52;;;;;;;7.40;5.32;;;;;;;;;;4791947;29;20080;-88
2022/10/01 13:21:24;;;;;;;7.50;4.85;;;;;;;;;;4791792;29;20037;-86
2022/10/01 13:23:50;;;;;;;8.90;6.20;;;;;;;;;;4791739;29;20468;-85
2022/10/01 13:26:16;;;;;;;10.32;5.43;;;;;;;;;;4791991;29;20029;-86
2022/10/01 13:28:48;;;;;;;29.80;6.68;;;;;;;;;;4790927;29;20034;-78
2022/10/01 13:31:18;;;;;;;14.70;4.45;;;25.20;93.50;;;;;;4792332;29;20109;-82
2022/10/01 13:33:54;;;;;;;10.13;3.72;;;24.40;97.70;;;;;;4808570;29;20099;-78
2022/10/01 13:36:31;;;;;;;12.23;3.50;;;23.40;99.90;;;;;;4809092;29;20084;-85
2022/10/01 13:38:58;;;;;;;12.98;2.83;;;22.50;99.90;;;;;;4792274;29;20035;-83
2022/10/01 13:41:30;;;;;;;6.43;2.22;;;21.60;99.90;;;;;;4808538;29;20071;-80
2022/10/01 13:44:07;;;;;;;6.22;2.45;;;21.00;99.90;;;;;;4808281;29;20022;-83
2022/10/01 13:46:51;;;;;;;11.88;4.45;;;20.60;99.90;;;;;;4808037;29;20038;-78
2022/10/01 13:49:26;;;;;;;14.80;3.45;;;20.10;99.90;;;;;;4808304;29;20074;-81
2022/10/01 13:51:52;;;;;;;11.57;2.85;;;19.50;99.90;;;;;;4791863;29;20111;-82
2022/10/01 13:54:49;;;;;;;10.40;2.85;;;19.20;99.90;;;;;;4808306;29;20054;-80
2022/10/01 13:57:41;;;;;;;10.30;3.97;;;19.10;99.90;;;;;;4808176;29;20030;-82
2022/10/01 14:00:07;;;;;;;;;;;18.90;99.90;;;;;;4805699;29;20085;-80
2022/10/01 14:02:35;;;;;;;10.60;3.35;;;18.80;99.90;;;;;;4808032;29;19944;-81
2022/10/01 14:05:27;;;;;;;5.10;2.22;;;18.80;99.90;;;;;;4808192;29;20030;-81
2022/10/01 14:08:09;;;;;;;6.80;2.50;;;18.90;99.90;;;;;;4786713;29;20114;-80
2022/10/01 14:16:39;;;;;;;5.88;3.15;;;18.70;99.90;;;;;;4806847;29;20083;-81
2022/10/01 14:19:06;;;;;;;5.30;2.25;;;18.70;99.90;;;;;;4804926;29;20122;-80
2022/10/01 14:21:58;;;;;;;8.18;2.50;;;18.70;99.90;;;;;;4807041;29;20031;-82
2022/10/01 14:24:44;;;;;;;4.07;1.80;;;18.80;99.90;;;;;;4802901;29;20043;-81
2022/10/01 14:27:28;;;;;;;9.05;2.13;;;18.90;99.90;;;;;;4806899;29;20380;-82
2022/10/01 14:30:04;;;;;;;7.10;2.00;;;18.90;99.90;;;;;;4802241;29;20043;-81
2022/10/01 14:32:58;;;;;;;5.55;2.95;;;19.00;99.90;;;;;;4807002;29;20033;-81
2022/10/01 14:35:59;;;;;;;4.78;2.15;;;19.20;99.90;;;;;;4803390;29;20429;-80
2022/10/01 14:38:25;;;;;;;3.93;2.03;;;19.20;99.90;;;;;;4803855;29;20038;-82
2022/10/01 14:40:52;;;;;;;5.00;2.13;;;19.30;99.90;;;;;;4789995;29;20287;-81
2022/10/01 14:43:21;;;;;;;5.57;2.47;;;19.30;99.90;;;;;;4790695;29;20348;-81
2022/10/01 14:45:58;;;;;;;5.55;2.13;;;19.30;99.90;;;;;;4806434;29;20099;-80
2022/10/01 14:48:29;;;;;;;3.10;2.50;;;19.30;99.90;;;;;;4791048;29;20042;-82
2022/10/01 14:50:58;;;;;;;4.78;2.65;;;19.40;99.90;;;;;;4807554;29;20171;-81
2022/10/01 14:53:30;;;;;;;5.78;2.70;;;19.30;99.90;;;;;;4807330;29;20046;-81
2022/10/01 14:56:11;;;;;;;5.78;2.58;;;19.20;99.90;;;;;;4806369;29;20042;-82
2022/10/01 14:58:47;;;;;;;6.80;2.58;;;19.20;99.90;;;;;;4790463;29;20035;-81
2022/10/01 15:01:21;;;;;;;7.15;2.75;;;19.20;99.90;;;;;;4807053;29;20026;-82
2022/10/01 15:03:49;;;;;;;9.15;2.85;;;19.30;99.90;;;;;;4807314;29;20054;-80
2022/10/01 15:06:23;;;;;;;7.13;2.65;;;19.20;99.90;;;;;;4806969;29;20512;-81
2022/10/01 15:08:54;;;;;;;6.93;3.30;;;19.20;99.90;;;;;;4806532;29;20498;-82
2022/10/01 15:11:28;;;;;;;7.60;4.43;;;19.30;99.90;;;;;;4806988;29;20082;-80
2022/10/01 15:14:00;;;;;;;9.80;4.13;;;19.30;99.90;;;;;;4806786;29;20094;-81
2022/10/01 15:16:27;;;;;;;6.28;3.25;;;19.30;99.90;;;;;;4790905;29;20039;-81
2022/10/01 15:19:06;;;;;;;12.73;3.55;;;19.30;99.90;;;;;;4806794;29;20051;-81
2022/10/01 15:21:38;;;;;;;11.02;2.95;;;19.40;99.90;;;;;;4807037;29;20027;-80
2022/10/01 15:24:12;;;;;;;5.70;3.17;;;19.40;99.90;;;;;;4806913;29;20027;-82
2022/10/01 15:26:38;;;;;;;7.25;3.05;;;19.40;99.90;;;;;;4806590;29;20061;-81
2022/10/01 15:29:15;;;;;;;6.85;3.15;;;19.30;99.90;;;;;;4806725;29;20069;-81
2022/10/01 15:31:44;;;;;;;6.20;3.17;;;19.20;99.90;;;;;;4806696;29;20131;-82
2022/10/01 15:34:12;;;;;;;8.98;5.53;;;19.10;99.90;;;;;;4806042;29;20019;-82
2022/10/01 15:36:39;;;;;;;7.55;4.80;;;19.10;99.90;;;;;;4790498;29;20031;-81
2022/10/01 15:39:37;;;;;;;8.88;4.50;;;19.10;99.90;;;;;;4790524;29;20038;-82
2022/10/01 15:42:30;;;;;;;9.20;4.95;;;19.10;99.90;;;;;;4751076;30;20076;-82
2022/10/01 15:45:09;;;;;;;11.73;4.85;;;19.10;99.90;;;;;;4735570;30;20032;-82
2022/10/01 15:47:39;;;;;;;9.85;4.90;;;19.00;99.90;;;;;;4749758;30;20028;-81
2022/10/01 15:50:07;;;;;;;11.52;5.97;;;18.90;99.90;;;;;;4748051;30;20032;-81
2022/10/01 15:52:49;;;;;;;14.40;7.00;;;19.00;99.90;;;;;;4752434;30;20044;-81
2022/10/01 15:55:27;;;;;;;11.32;6.22;;;19.00;99.90;;;;;;4763193;30;20035;-83
2022/10/01 15:58:02;;;;;;;11.73;6.07;;;19.00;99.90;;;;;;4736072;30;20044;-82
2022/10/01 16:00:30;;;;;;;9.73;4.65;;;19.00;99.90;;;;;;4752945;30;20040;-83
2022/10/01 16:02:57;;;;;;;19.45;7.75;;;18.90;99.90;;;;;;4752197;30;20032;-82
2022/10/01 16:05:30;;;;;;;9.02;5.45;;;18.80;99.90;;;;;;4752458;30;20047;-82
2022/10/01 16:07:59;;;;;;;11.02;6.68;;;18.80;99.90;;;;;;4751842;30;20114;-82
2022/10/01 16:10:38;;;;;;;12.35;6.43;;;18.80;99.90;;;;;;4752213;30;20085;-82
2022/10/01 16:13:39;;;;;;;12.63;6.53;;;18.80;99.90;;;;;;4752456;30;20040;-82
2022/10/01 16:16:24;;;;;;;13.55;8.10;;;18.80;99.90;;;;;;4752837;30;20028;-81
2022/10/01 16:18:59;;;;;;;24.65;18.65;;;18.70;99.90;;;;;;4762922;30;20035;-82
2022/10/01 16:21:25;;;;;;;12.55;7.20;;;18.70;99.90;;;;;;4791171;29;20040;-81
2022/10/01 16:23:53;;;;;;;12.10;6.53;;;18.50;99.90;;;;;;4790260;30;20560;-82
2022/10/01 16:26:37;;;;;;;11.90;7.30;;;18.50;99.90;;;;;;4790319;29;20401;-84
2022/10/01 16:29:12;;;;;;;13.18;8.07;;;18.40;99.90;;;;;;4790370;30;20031;-83
2022/10/01 16:31:41;;;;;;;14.75;8.52;;;18.50;99.90;;;;;;4774772;30;20559;-83
2022/10/01 16:34:12;;;;;;;19.98;14.30;;;18.40;99.90;;;;;;4790261;29;20531;-83
2022/10/01 16:36:38;;;;;;;15.98;11.57;;;18.40;99.90;;;;;;4790377;30;20042;-83
2022/10/01 16:39:05;;;;;;;12.52;9.45;;;18.40;99.90;;;;;;4790198;29;20379;-82
2022/10/01 16:41:32;;;;;;;18.40;11.18;;;18.40;99.90;;;;;;4790170;30;20028;-83
2022/10/01 16:43:59;;;;;;;20.75;14.48;;;18.30;99.90;;;;;;4790040;30;20031;-83
2022/10/01 16:46:24;;;;;;;13.55;9.65;;;18.40;99.90;;;;;;4790043;30;20471;-83
2022/10/01 16:48:50;;;;;;;14.30;9.68;;;18.40;99.90;;;;;;4790312;30;20029;-84
2022/10/01 16:51:17;;;;;;;15.52;10.93;;;18.40;99.90;;;;;;4735280;29;1240678;-85
2022/10/01 16:53:44;;;;;;;14.40;8.05;;;18.50;99.90;;;;;;4808138;29;20035;-85
2022/10/01 16:56:10;;;;;;;16.95;9.93;;;18.50;99.90;;;;;;4809437;29;20046;-85
2022/10/01 16:58:37;;;;;;;15.23;8.68;;;18.40;99.90;;;;;;4808961;29;20394;-85
2022/10/01 17:01:08;;;;;;;13.85;9.30;;;18.50;99.90;;;;;;4809214;29;20046;-84
2022/10/01 17:03:35;;;;;;;16.02;11.80;;;18.40;99.90;;;;;;4792938;29;20413;-84
2022/10/01 17:06:01;;;;;;;14.75;10.82;;;18.30;99.90;;;;;;4809246;29;20035;-83
2022/10/01 17:08:27;;;;;;;19.35;10.15;;;18.30;99.90;;;;;;4808861;29;20356;-84
2022/10/01 17:10:58;;;;;;;12.38;10.02;;;18.20;99.90;;;;;;4807760;29;20042;-84
2022/10/01 17:13:26;;;;;;;13.50;9.52;;;18.20;99.90;;;;;;4809143;29;20066;-84
2022/10/01 17:15:53;;;;;;;15.38;9.82;;;18.20;99.90;;;;;;4792684;29;20398;-85
2022/10/01 17:18:22;;;;;;;13.45;9.32;;;18.20;99.90;;;;;;4808800;29;20030;-86
2022/10/01 17:20:48;;;;;;;15.05;7.80;;;18.20;99.90;;;;;;4792343;29;20027;-84
2022/10/01 17:23:16;;;;;;;14.20;6.85;;;18.20;99.90;;;;;;4808639;29;20097;-83
2022/10/01 17:25:42;;;;;;;9.57;7.38;;;18.10;99.90;;;;;;4808473;29;20027;-83
2022/10/01 17:28:15;;;;;;;17.67;8.02;;;18.10;99.90;;;;;;4808828;29;20031;-83
2022/10/01 17:30:42;;;;;;;13.52;7.22;;;18.00;99.90;;;;;;4792372;29;20022;-84
2022/10/01 17:33:10;;;;;;;13.45;7.65;;;18.00;99.90;;;;;;4808593;29;20027;-82
2022/10/01 17:35:42;;;;;;;12.10;6.60;;;17.90;99.90;;;;;;4808708;29;20027;-86
2022/10/01 17:38:08;;;;;;;8.38;6.10;;;17.90;99.90;;;;;;4808678;29;20102;-83
2022/10/01 17:40:35;;;;;;;9.13;6.10;;;17.90;99.90;;;;;;4792073;29;20130;-83
2022/10/01 17:43:02;;;;;;;9.73;6.38;;;17.90;99.90;;;;;;4792257;29;20031;-83
2022/10/01 17:45:28;;;;;;;7.25;5.50;;;17.90;99.90;;;;;;4808836;29;20035;-84
2022/10/01 17:47:55;;;;;;;11.40;6.10;;;17.90;99.90;;;;;;4808394;29;20106;-84
2022/10/01 17:50:21;;;;;;;12.80;6.45;;;17.90;99.90;;;;;;4807207;29;20035;-84
2022/10/01 17:52:47;;;;;;;18.35;8.45;;;17.80;99.90;;;;;;4808352;29;20095;-84
2022/10/01 17:55:13;;;;;;;20.08;6.55;;;17.80;99.90;;;;;;4808132;29;20027;-83
2022/10/01 17:57:39;;;;;;;18.25;5.90;;;17.80;99.90;;;;;;4808245;29;20374;-83
2022/10/01 18:00:05;;;;;;;15.98;7.13;;;17.80;99.90;;;;;;4807851;29;20045;-84
2022/10/01 18:02:31;;;;;;;11.30;6.15;;;17.70;99.90;;;;;;4808079;29;20033;-85
2022/10/01 18:04:57;;;;;;;10.88;5.95;;;17.70;99.90;;;;;;4791946;29;20367;-84
2022/10/01 18:07:25;;;;;;;8.90;5.63;;;17.70;99.90;;;;;;4807969;29;20478;-81
2022/10/01 18:09:52;;;;;;;8.82;5.60;;;17.70;99.90;;;;;;4806951;29;20502;-83
2022/10/01 18:12:18;;;;;;;15.15;5.40;;;17.60;99.90;;;;;;4808279;29;20055;-82
2022/10/01 18:14:44;;;;;;;11.73;5.30;;;17.70;99.90;;;;;;4806494;29;20059;-82
2022/10/01 18:17:09;;;;;;;11.77;5.68;;;17.60;99.90;;;;;;4806567;29;20030;-81
2022/10/01 18:19:35;;;;;;;10.90;5.32;;;17.60;99.90;;;;;;4807332;29;20038;-81
2022/10/01 18:22:01;;;;;;;13.55;6.18;;;17.50;99.90;;;;;;4806505;29;20105;-81
2022/10/01 18:24:28;;;;;;;12.57;5.65;;;17.50;99.90;;;;;;4806095;29;20137;-82
2022/10/01 18:26:54;;;;;;;12.77;5.25;;;17.50;99.90;;;;;;4807748;29;20030;-82
2022/10/01 18:29:23;;;;;;;14.15;5.60;;;17.50;99.90;;;;;;4807639;29;20084;-84
2022/10/01 18:31:57;;;;;;;9.65;5.68;;;17.50;99.90;;;;;;4807708;29;20114;-83
2022/10/01 18:34:53;;;;;;;12.93;7.43;;;17.60;99.90;;;;;;4807542;29;20027;-83
2022/10/01 18:37:37;;;;;;;12.07;6.97;;;17.60;99.90;;;;;;4791451;29;20477;-83
2022/10/01 18:40:10;;;;;;;17.20;7.63;;;17.60;99.90;;;;;;4807269;29;20114;-85
2022/10/01 18:42:51;;;;;;;15.38;7.40;;;17.60;99.90;;;;;;4807545;29;20362;-85
2022/10/01 18:45:49;;;;;;;15.40;6.05;;;17.60;99.90;;;;;;4791120;29;20463;-83
2022/10/01 18:48:52;;;;;;;12.27;4.78;;;17.60;99.90;;;;;;4776075;29;20039;-82
2022/10/01 18:51:20;;;;;;;9.77;5.03;;;17.50;99.90;;;;;;4807449;29;20057;-83
2022/10/01 18:54:21;;;;;;;9.40;4.68;;;17.60;99.90;;;;;;4807381;29;20463;-83
2022/10/01 18:57:10;;;;;;;6.65;4.20;;;17.50;99.90;;;;;;4807222;29;20027;-83
2022/10/01 18:59:54;;;;;;;10.55;4.97;;;17.60;99.90;;;;;;4807166;29;20041;-83
2022/10/01 19:02:51;;;;;;;7.88;5.22;;;17.60;99.90;;;;;;4791184;29;20034;-86
2022/10/01 19:05:38;;;;;;;19.60;6.15;;;17.60;99.90;;;;;;4790660;29;20023;-84
2022/10/01 19:08:23;;;;;;;11.52;5.80;;;17.60;99.90;;;;;;4804575;29;20422;-85
2022/10/01 19:11:10;;;;;;;12.80;6.88;;;17.50;99.90;;;;;;4790246;29;20467;-83
2022/10/01 19:13:42;;;;;;;12.35;5.72;;;17.50;99.90;;;;;;4805478;29;20023;-82
2022/10/01 19:16:27;;;;;;;13.30;6.30;;;17.40;99.90;;;;;;4790074;29;20455;-82
2022/10/01 19:19:06;;;;;;;14.80;5.90;;;17.40;99.90;;;;;;4789684;29;20106;-83
2022/10/01 19:21:44;;;;;;;19.92;7.38;;;17.40;99.90;;;;;;4806483;29;20041;-83
2022/10/01 19:24:46;;;;;;;16.25;8.82;;;17.30;99.90;;;;;;4806672;29;20029;-82
2022/10/01 19:27:37;;;;;;;16.48;8.55;;;17.20;99.90;;;;;;4793134;29;20027;-83
2022/10/01 19:30:14;;;;;;;20.35;7.88;;;17.20;99.90;;;;;;4797170;29;20030;-84
2022/10/01 19:33:00;;;;;;;15.73;7.82;;;17.20;99.90;;;;;;4785789;29;20053;-82
2022/10/01 19:35:42;;;;;;;16.15;7.30;;;17.20;99.90;;;;;;4789210;29;20043;-85
2022/10/01 19:38:35;;;;;;;18.05;7.53;;;17.10;99.90;;;;;;4789651;29;20054;-85
2022/10/01 19:41:28;;;;;;;12.52;6.95;;;17.10;99.90;;;;;;4797632;29;20113;-84
2022/10/01 19:44:07;;;;;;;12.57;7.95;;;17.00;99.90;;;;;;4772355;30;20027;-84
2022/10/01 19:46:42;;;;;;;14.45;7.88;;;17.00;99.90;;;;;;4788384;30;20036;-83
2022/10/01 19:49:08;;;;;;;15.07;8.13;;;16.90;99.90;;;;;;4788599;30;20054;-83
2022/10/01 19:51:54;;;;;;;15.23;8.73;;;16.90;99.90;;;;;;4771848;30;20476;-82
2022/10/01 19:54:26;;;;;;;13.18;7.55;;;16.90;99.90;;;;;;4805937;29;20030;-84
2022/10/01 19:56:56;;;;;;;14.65;7.22;;;16.80;99.90;;;;;;4806605;29;20152;-82
2022/10/01 19:59:22;;;;;;;16.45;7.00;;;16.80;99.90;;;;;;4806138;29;20031;-82
2022/10/01 20:01:59;;;;;;;11.02;6.65;;;16.70;99.90;;;;;;4806517;29;20038;-82
2022/10/01 20:04:34;;;;;;;12.40;6.60;;;16.70;99.90;;;;;;4806550;29;20164;-83
2022/10/01 20:07:06;;;;;;;9.43;6.95;;;16.70;99.90;;;;;;4790019;29;20038;-84
2022/10/01 20:09:58;;;;;;;;;;;16.60;99.90;;;;;;4805827;29;20422;-82
2022/10/01 20:12:27;;;;;;;10.55;5.80;;;16.60;99.90;;;;;;4804304;29;20239;-81
2022/10/01 20:15:08;;;;;;;19.05;6.13;;;16.50;99.90;;;;;;4805874;29;20425;-84
2022/10/01 20:17:49;;;;;;;12.40;6.00;;;16.50;99.90;;;;;;4806345;29;20113;-82
2022/10/01 20:20:22;;;;;;;15.50;7.60;;;16.50;99.90;;;;;;4800745;29;20070;-83
2022/10/01 20:23:10;;;;;;;13.80;7.97;;;16.40;99.90;;;;;;4824682;29;20083;-84
2022/10/01 20:25:57;;;;;;;13.27;8.05;;;16.50;99.90;;;;;;4823172;29;20075;-82
2022/10/01 20:28:31;;;;;;;9.90;6.70;;;16.50;99.90;;;;;;4824387;29;20085;-82
2022/10/01 20:31:09;;;;;;;16.40;8.00;;;16.40;99.90;;;;;;4771884;30;20031;-84
2022/10/01 20:33:50;;;;;;;9.98;7.60;;;16.40;99.90;;;;;;4787883;30;20468;-81
2022/10/01 20:36:30;;;;;;;9.57;7.65;;;16.40;99.90;;;;;;4788702;29;20098;-83
2022/10/01 20:39:12;;;;;;;11.98;8.90;;;16.40;99.90;;;;;;4775411;30;20452;-82
2022/10/01 20:41:47;;;;;;;10.82;9.60;;;16.40;99.90;;;;;;4791318;30;20057;-81
2022/10/01 20:44:20;;;;;;;16.98;9.95;;;16.40;99.90;;;;;;4775324;30;20032;-84
2022/10/01 20:46:49;;;;;;;19.20;11.35;;;16.40;99.90;;;;;;4775410;30;20027;-85
2022/10/01 20:49:28;;;;;;;16.35;11.23;;;16.30;99.90;;;;;;4791305;30;20161;-80
2022/10/01 20:52:03;;;;;;;14.07;9.38;;;16.30;99.90;;;;;;4791438;30;20047;-82
2022/10/01 20:54:37;;;;;;;24.42;11.15;;;16.30;99.90;;;;;;4795232;29;20182;-81
2022/10/01 20:57:27;;;;;;;19.23;9.65;;;16.30;99.90;;;;;;4804045;29;20455;-80
2022/10/01 20:59:55;;;;;;;19.13;11.02;;;16.20;99.90;;;;;;4798217;29;20039;-81
2022/10/01 21:02:30;;;;;;;21.55;10.60;;;16.20;99.90;;;;;;4775024;30;20027;-81
2022/10/01 21:05:17;;;;;;;21.20;9.35;;;16.20;99.90;;;;;;4791587;30;20038;-82
2022/10/01 21:08:23;;;;;;;16.23;8.63;;;16.20;99.90;;;;;;4775091;30;20409;-81
2022/10/01 21:11:02;;;;;;;10.40;6.40;;;16.20;99.90;;;;;;4752673;30;20039;-81
2022/10/01 21:13:41;;;;;;;10.95;6.15;;;16.10;99.90;;;;;;4809154;29;20062;-81
2022/10/01 21:16:32;;;;;;;11.55;4.07;;;16.10;99.90;;;;;;4808932;29;20027;-82
2022/10/01 21:19:46;;;;;;;10.07;3.80;;;16.10;99.90;;;;;;4792812;29;20447;-82
2022/10/01 21:22:37;;;;;;;5.65;3.03;;;16.10;99.90;;;;;;4777128;29;20406;-83
2022/10/01 21:25:27;;;;;;;9.43;2.88;;;16.10;99.90;;;;;;4783873;29;20104;-84
2022/10/01 21:28:14;;;;;;;8.63;2.30;;;16.10;99.90;;;;;;4808782;29;20023;-85
2022/10/01 21:30:52;;;;;;;3.92;2.20;;;16.00;99.90;;;;;;4807407;29;20030;-84
2022/10/01 21:33:34;;;;;;;5.47;2.10;;;16.10;99.90;;;;;;4807925;29;20126;-83
2022/10/01 21:36:26;;;;;;;6.03;2.50;;;16.00;99.90;;;;;;4798164;29;20023;-82
2022/10/01 21:39:03;;;;;;;9.93;2.38;;;16.00;99.90;;;;;;4807034;29;20034;-84
2022/10/01 21:41:36;;;;;;;5.63;2.88;;;16.10;99.90;;;;;;4792323;29;20083;-84
2022/10/01 21:44:29;;;;;;;6.13;2.60;;;16.00;99.90;;;;;;4791573;29;20424;-82
2022/10/01 21:46:58;;;;;;;7.75;2.63;;;16.00;99.90;;;;;;4808522;29;20037;-85
2022/10/01 21:49:32;;;;;;;8.10;2.28;;;16.00;99.90;;;;;;4791001;29;20035;-84
2022/10/01 21:52:12;;;;;;;9.10;2.38;;;16.00;99.90;;;;;;4808166;29;20054;-82
2022/10/01 21:55:16;;;;;;;6.72;2.03;;;16.00;99.90;;;;;;4808154;29;20027;-84
2022/10/01 21:58:16;;;;;;;5.40;2.65;;;15.90;99.90;;;;;;4808237;29;20033;-82
2022/10/01 22:00:51;;;;;;;5.65;2.70;;;15.90;99.90;;;;;;4792146;29;20043;-85
2022/10/01 22:03:36;;;;;;;8.10;2.25;;;15.90;99.90;;;;;;4807947;29;20026;-83
2022/10/01 22:06:16;;;;;;;4.22;2.30;;;15.90;99.90;;;;;;4807852;29;20348;-83
2022/10/01 22:09:29;;;;;;;6.03;2.00;;;15.90;99.90;;;;;;4792119;29;20371;-84
2022/10/01 22:11:59;;;;;;;6.70;2.05;;;16.00;99.90;;;;;;4784597;29;20034;-84
2022/10/01 22:14:26;;;;;;;8.38;2.35;;;16.00;99.90;;;;;;4807315;29;20030;-82
2022/10/01 22:16:56;;;;;;;7.85;2.58;;;16.10;99.90;;;;;;4806995;29;20031;-81
2022/10/01 22:19:36;;;;;;;4.78;1.85;;;16.10;99.90;;;;;;4807856;29;20030;-82
2022/10/01 22:22:24;;;;;;;7.00;1.80;;;16.20;99.90;;;;;;4788579;29;20114;-83
2022/10/01 22:24:55;;;;;;;6.13;2.20;;;16.30;99.90;;;;;;4781424;29;20046;-82
2022/10/01 22:27:45;;;;;;;4.90;2.85;;;16.30;99.90;;;;;;4807365;29;20083;-82
2022/10/01 22:30:16;;;;;;;3.47;1.65;;;16.30;99.90;;;;;;4807976;29;20073;-82
2022/10/01 22:32:47;;;;;;;11.77;2.80;;;16.50;99.90;;;;;;4791396;29;20057;-83
2022/10/01 22:35:24;;;;;;;2.97;2.60;;;16.50;99.90;;;;;;4791881;29;20075;-82
2022/10/01 22:38:04;;;;;;;5.40;1.98;;;16.60;99.90;;;;;;4791251;29;20462;-84
2022/10/01 22:40:37;;;;;;;4.53;1.90;;;16.60;99.90;;;;;;4807567;29;20045;-84
2022/10/01 22:43:10;;;;;;;5.72;1.65;;;16.60;99.90;;;;;;4807707;29;20033;-84
2022/10/01 22:46:22;;;;;;;9.23;1.83;;;16.60;99.90;;;;;;4791415;29;20080;-82
2022/10/01 22:49:23;;;;;;;5.65;1.95;;;16.50;99.90;;;;;;4783296;29;20045;-82
2022/10/01 22:51:55;;;;;;;6.10;1.63;;;16.50;99.90;;;;;;4787567;29;20054;-81
2022/10/01 22:54:39;;;;;;;;;;;16.50;99.90;;;;;;4815546;29;20100;-83
2022/10/01 22:57:26;;;;;;;12.93;2.50;;;16.50;99.90;;;;;;4807211;29;19951;-84
2022/10/01 23:00:12;;;;;;;7.07;1.70;;;16.40;99.90;;;;;;4811128;29;20031;-83
2022/10/01 23:02:59;;;;;;;5.28;1.85;;;16.40;99.90;;;;;;4806008;29;20126;-83
2022/10/01 23:05:40;;;;;;;8.02;1.75;;;16.40;99.90;;;;;;4807135;29;20537;-83
2022/10/01 23:08:23;;;;;;;4.18;2.10;;;16.30;99.90;;;;;;4805864;29;20038;-84
2022/10/01 23:10:49;;;;;;;6.68;1.75;;;16.30;99.90;;;;;;4802311;29;20027;-84